sensor_id;sensor_type;location;lat;lon;timestamp;temperature;humidity
4429;DHT22;2227;47.810;8.810;2024-01-15T04:50:25;0.10;99.90
4429;DHT22;2227;47.810;8.810;2024-01-15T04:52:51;0.00;99.90
4429;DHT22;2227;47.810;8.810;2024-01-15T04:55:18;0.00;99.90
4429;DHT22;2227;47.810;8.810;2024-01-15T04:57:46;0.20;99.90
4429;DHT22;2227;47.810;8.810;2024-01-15T05:00:13;0.20;99.90
4429;DHT22;2227;47.810;8.810;2024-01-15T05:02:41;0.30;99.90
4429;DHT22;2227;47.810;8.810;2024-01-15T05:05:08;0.30;99.90
4429;DHT22;2227;47.810;8.810;2024-01-15T05:07:35;0.40;99.90
4429;DHT22;2227;47.810;8.810;2024-01-15T05:10:02;0.50;99.90
4429;DHT22;2227;47.810;8.810;2024-01-15T05:12:29;0.40;99.90
4429;DHT22;2227;47.810;8.810;2024-01-15T05:14:56;0.60;99.90
4429;DHT22;2227;47.810;8.810;2024-01-15T05:17:23;0.70;99.90
4429;DHT22;2227;47.810;8.810;2024-01-15T05:19:50;0.70;99.90
4429;DHT22;2227;47.810;8.810;2024-01-15T05:22:17;0.80;99.90
4429;DHT22;2227;47.810;8.810;2024-01-15T05:24:43;0.90;99.90
4429;DHT22;2227;47.810;8.810;2024-01-15T05:27:10;0.90;99.90
4429;DHT22;2227;47.810;8.810;2024-01-15T05:29:37;0.90;99.90
4429;DHT22;2227;47.810;8.810;2024-01-15T05:32:04;1.00;99.90
4429;DHT22;2227;47.810;8.810;2024-01-15T05:34:31;1.10;99.90
4429;DHT22;2227;47.810;8.810;2024-01-15T05:36:58;1.10;99.90
4429;DHT22;2227;47.810;8.810;2024-01-15T05:39:25;1.30;99.90
4429;DHT22;2227;47.810;8.810;2024-01-15T05:41:52;1.30;99.90
4429;DHT22;2227;47.810;8.810;2024-01-15T05:44:19;1.50;99.90
4429;DHT22;2227;47.810;8.810;2024-01-15T05:46:46;1.60;99.90
4429;DHT22;2227;47.810;8.810;2024-01-15T05:49:13;1.70;99.90
4429;DHT22;2227;47.810;8.810;2024-01-15T05:51:41;1.70;99.90
4429;DHT22;2227;47.810;8.810;2024-01-15T05:54:08;1.50;99.90
4429;DHT22;2227;47.810;8.810;2024-01-15T05:56:35;1.30;99.90
4429;DHT22;2227;47.810;8.810;2024-01-15T05:59:02;1.10;99.90
4429;DHT22;2227;47.810;8.810;2024-01-15T06:01:29;1.10;99.90
4429;DHT22;2227;47.810;8.810;2024-01-15T06:03:56;1.00;99.90
4429;DHT22;2227;47.810;8.810;2024-01-15T06:06:23;1.00;99.90
4429;DHT22;2227;47.810;8.810;2024-01-15T06:08:50;1.20;99.90
4429;DHT22;2227;47.810;8.810;2024-01-15T06:11:17;1.20;99.90
4429;DHT22;2227;47.810;8.810;2024-01-15T06:13:44;1.30;99.90
4429;DHT22;2227;47.810;8.810;2024-01-15T06:16:15;1.30;99.90
4429;DHT22;2227;47.810;8.810;2024-01-15T06:18:46;1.20;99.90
4429;DHT22;2227;47.810;8.810;2024-01-15T06:21:14;1.20;99.90
4429;DHT22;2227;47.810;8.810;2024-01-15T06:23:41;1.30;99.90
4429;DHT22;2227;47.810;8.810;2024-01-15T06:26:08;1.30;99.90
4429;DHT22;2227;47.810;8.810;2024-01-15T06:28:35;1.30;99.90
4429;DHT22;2227;47.810;8.810;2024-01-15T06:31:02;1.40;99.90
4429;DHT22;2227;47.810;8.810;2024-01-15T06:33:29;1.30;99.90
4429;DHT22;2227;47.810;8.810;2024-01-15T06:35:56;1.40;99.90
4429;DHT22;2227;47.810;8.810;2024-01-15T06:38:23;1.50;99.90
4429;DHT22;2227;47.810;8.810;2024-01-15T06:40:51;1.60;99.90
4429;DHT22;2227;47.810;8.810;2024-01-15T06:43:19;1.70;99.90
4429;DHT22;2227;47.810;8.810;2024-01-15T06:45:46;1.70;99.90
4429;DHT22;2227;47.810;8.810;2024-01-15T06:48:13;1.80;99.90
4429;DHT22;2227;47.810;8.810;2024-01-15T06:50:43;1.70;99.90
4429;DHT22;2227;47.810;8.810;2024-01-15T06:53:10;1.60;99.90
4429;DHT22;2227;47.810;8.810;2024-01-15T06:55:38;1.70;99.90
4429;DHT22;2227;47.810;8.810;2024-01-15T06:58:05;1.70;99.90
4429;DHT22;2227;47.810;8.810;2024-01-15T07:00:32;1.80;99.90
4429;DHT22;2227;47.810;8.810;2024-01-15T07:03:00;1.80;99.90
4429;DHT22;2227;47.810;8.810;2024-01-15T07:05:27;1.80;99.90
4429;DHT22;2227;47.810;8.810;2024-01-15T07:07:54;1.80;99.90
4429;DHT22;2227;47.810;8.810;2024-01-15T07:10:21;1.90;99.90
4429;DHT22;2227;47.810;8.810;2024-01-15T07:12:48;1.60;99.90
4429;DHT22;2227;47.810;8.810;2024-01-15T07:15:15;1.60;99.90
4429;DHT22;2227;47.810;8.810;2024-01-15T07:17:42;1.60;99.90
4429;DHT22;2227;47.810;8.810;2024-01-15T07:20:10;1.70;99.90
4429;DHT22;2227;47.810;8.810;2024-01-15T07:22:37;1.80;99.90
4429;DHT22;2227;47.810;8.810;2024-01-15T07:25:04;1.80;99.90
4429;DHT22;2227;47.810;8.810;2024-01-15T07:27:32;1.80;99.90
4429;DHT22;2227;47.810;8.810;2024-01-15T07:29:59;1.90;99.90
4429;DHT22;2227;47.810;8.810;2024-01-15T07:32:28;1.90;99.90
4429;DHT22;2227;47.810;8.810;2024-01-15T07:34:56;2.00;99.90
4429;DHT22;2227;47.810;8.810;2024-01-15T07:37:23;1.80;99.90
4429;DHT22;2227;47.810;8.810;2024-01-15T07:39:50;1.80;99.90
4429;DHT22;2227;47.810;8.810;2024-01-15T07:42:17;1.70;99.90
4429;DHT22;2227;47.810;8.810;2024-01-15T07:44:44;1.70;99.90
4429;DHT22;2227;47.810;8.810;2024-01-15T07:47:11;1.70;99.90
4429;DHT22;2227;47.810;8.810;2024-01-15T07:49:38;1.70;99.90
4429;DHT22;2227;47.810;8.810;2024-01-15T07:52:06;1.80;99.90
4429;DHT22;2227;47.810;8.810;2024-01-15T07:54:33;1.80;99.90
4429;DHT22;2227;47.810;8.810;2024-01-15T07:57:01;1.80;99.90
4429;DHT22;2227;47.810;8.810;2024-01-15T07:59:29;1.80;99.90
4429;DHT22;2227;47.810;8.810;2024-01-15T08:01:58;1.70;99.90
4429;DHT22;2227;47.810;8.810;2024-01-15T08:04:25;1.60;99.90
4429;DHT22;2227;47.810;8.810;2024-01-15T08:06:52;1.60;99.90
4429;DHT22;2227;47.810;8.810;2024-01-15T08:09:20;1.40;99.90
4429;DHT22;2227;47.810;8.810;2024-01-15T08:11:46;1.40;99.90
4429;DHT22;2227;47.810;8.810;2024-01-15T08:14:13;1.50;99.90
4429;DHT22;2227;47.810;8.810;2024-01-15T08:16:40;1.70;99.90
4429;DHT22;2227;47.810;8.810;2024-01-15T08:19:08;1.80;99.90
4429;DHT22;2227;47.810;8.810;2024-01-15T08:21:35;1.80;99.90
4429;DHT22;2227;47.810;8.810;2024-01-15T08:24:02;2.00;99.90
4429;DHT22;2227;47.810;8.810;2024-01-15T08:26:30;2.10;99.90
4429;DHT22;2227;47.810;8.810;2024-01-15T08:28:56;2.20;99.90
4429;DHT22;2227;47.810;8.810;2024-01-15T08:31:23;2.30;99.90
4429;DHT22;2227;47.810;8.810;2024-01-15T08:33:50;2.40;99.90
4429;DHT22;2227;47.810;8.810;2024-01-15T08:36:18;2.20;99.90
4429;DHT22;2227;47.810;8.810;2024-01-15T08:38:45;2.20;99.90
4429;DHT22;2227;47.810;8.810;2024-01-15T08:41:13;2.20;99.90
4429;DHT22;2227;47.810;8.810;2024-01-15T08:43:40;2.40;99.90
4429;DHT22;2227;47.810;8.810;2024-01-15T08:46:07;2.40;99.90
4429;DHT22;2227;47.810;8.810;2024-01-15T08:48:34;2.40;99.90
4429;DHT22;2227;47.810;8.810;2024-01-15T08:51:01;2.50;99.90
4429;DHT22;2227;47.810;8.810;2024-01-15T08:53:28;2.40;99.90
4429;DHT22;2227;47.810;8.810;2024-01-15T08:55:55;2.00;99.90
4429;DHT22;2227;47.810;8.810;2024-01-15T08:58:23;1.80;99.90
4429;DHT22;2227;47.810;8.810;2024-01-15T09:00:50;1.90;99.90
4429;DHT22;2227;47.810;8.810;2024-01-15T09:03:17;1.90;99.90
4429;DHT22;2227;47.810;8.810;2024-01-15T09:05:44;1.90;99.90
4429;DHT22;2227;47.810;8.810;2024-01-15T09:08:11;1.90;99.90
4429;DHT22;2227;47.810;8.810;2024-01-15T09:10:38;1.80;99.90
4429;DHT22;2227;47.810;8.810;2024-01-15T09:13:05;1.90;99.90
4429;DHT22;2227;47.810;8.810;2024-01-15T09:15:32;2.00;99.90
4429;DHT22;2227;47.810;8.810;2024-01-15T09:17:59;1.80;99.90
4429;DHT22;2227;47.810;8.810;2024-01-15T09:20:26;1.70;99.90
4429;DHT22;2227;47.810;8.810;2024-01-15T09:22:54;1.60;99.90
4429;DHT22;2227;47.810;8.810;2024-01-15T09:25:21;1.70;99.90
4429;DHT22;2227;47.810;8.810;2024-01-15T09:27:48;2.30;99.90
4429;DHT22;2227;47.810;8.810;2024-01-15T09:30:15;3.80;99.90
4429;DHT22;2227;47.810;8.810;2024-01-15T09:32:42;4.90;99.90
4429;DHT22;2227;47.810;8.810;2024-01-15T09:35:09;6.30;99.90
4429;DHT22;2227;47.810;8.810;2024-01-15T09:37:37;8.00;99.90
4429;DHT22;2227;47.810;8.810;2024-01-15T09:40:14;8.60;99.90
4429;DHT22;2227;47.810;8.810;2024-01-15T09:42:44;9.40;99.10
4429;DHT22;2227;47.810;8.810;2024-01-15T09:45:13;10.20;96.30
4429;DHT22;2227;47.810;8.810;2024-01-15T09:47:40;10.60;95.30
4429;DHT22;2227;47.810;8.810;2024-01-15T09:50:13;11.20;92.20
4429;DHT22;2227;47.810;8.810;2024-01-15T09:52:41;10.80;91.70
4429;DHT22;2227;47.810;8.810;2024-01-15T09:55:09;10.80;90.30
4429;DHT22;2227;47.810;8.810;2024-01-15T09:57:37;10.50;90.30
4429;DHT22;2227;47.810;8.810;2024-01-15T10:00:04;10.00;90.40
4429;DHT22;2227;47.810;8.810;2024-01-15T10:02:34;10.20;90.10
4429;DHT22;2227;47.810;8.810;2024-01-15T10:05:02;8.70;90.90
4429;DHT22;2227;47.810;8.810;2024-01-15T10:07:30;6.90;93.50
4429;DHT22;2227;47.810;8.810;2024-01-15T10:10:01;5.40;96.30
4429;DHT22;2227;47.810;8.810;2024-01-15T10:12:30;4.30;98.40
4429;DHT22;2227;47.810;8.810;2024-01-15T10:14:57;3.90;99.80
4429;DHT22;2227;47.810;8.810;2024-01-15T10:17:24;3.70;99.90
4429;DHT22;2227;47.810;8.810;2024-01-15T10:19:54;5.70;99.80
4429;DHT22;2227;47.810;8.810;2024-01-15T10:22:22;7.40;96.40
4429;DHT22;2227;47.810;8.810;2024-01-15T10:24:49;8.50;94.20
4429;DHT22;2227;47.810;8.810;2024-01-15T10:27:16;9.10;93.20
4429;DHT22;2227;47.810;8.810;2024-01-15T10:29:43;10.20;90.80
4429;DHT22;2227;47.810;8.810;2024-01-15T10:32:10;9.50;91.30
4429;DHT22;2227;47.810;8.810;2024-01-15T10:34:38;8.70;92.40
4429;DHT22;2227;47.810;8.810;2024-01-15T10:37:10;8.60;92.70
4429;DHT22;2227;47.810;8.810;2024-01-15T10:39:37;9.00;92.50
4429;DHT22;2227;47.810;8.810;2024-01-15T10:42:05;9.40;92.30
4429;DHT22;2227;47.810;8.810;2024-01-15T10:44:34;9.90;92.30
4429;DHT22;2227;47.810;8.810;2024-01-15T10:47:02;10.70;91.00
4429;DHT22;2227;47.810;8.810;2024-01-15T10:49:29;11.10;91.30
4429;DHT22;2227;47.810;8.810;2024-01-15T10:52:01;11.40;90.50
4429;DHT22;2227;47.810;8.810;2024-01-15T10:54:28;11.70;89.80
4429;DHT22;2227;47.810;8.810;2024-01-15T10:56:56;12.10;88.10
4429;DHT22;2227;47.810;8.810;2024-01-15T10:59:24;12.50;85.50
4429;DHT22;2227;47.810;8.810;2024-01-15T11:01:52;11.90;85.60
4429;DHT22;2227;47.810;8.810;2024-01-15T11:04:23;10.60;90.10
4429;DHT22;2227;47.810;8.810;2024-01-15T11:06:55;10.10;90.80
4429;DHT22;2227;47.810;8.810;2024-01-15T11:09:25;9.60;91.60
4429;DHT22;2227;47.810;8.810;2024-01-15T11:12:10;9.80;91.40
4429;DHT22;2227;47.810;8.810;2024-01-15T11:14:41;9.70;91.50
4429;DHT22;2227;47.810;8.810;2024-01-15T11:17:11;9.40;92.10
4429;DHT22;2227;47.810;8.810;2024-01-15T11:22:11;9.50;91.70
4429;DHT22;2227;47.810;8.810;2024-01-15T11:24:57;9.30;91.70
4429;DHT22;2227;47.810;8.810;2024-01-15T11:27:50;9.90;90.90
4429;DHT22;2227;47.810;8.810;2024-01-15T11:30:25;9.90;90.20
4429;DHT22;2227;47.810;8.810;2024-01-15T11:32:52;9.70;91.40
4429;DHT22;2227;47.810;8.810;2024-01-15T11:35:19;10.40;90.60
4429;DHT22;2227;47.810;8.810;2024-01-15T11:40:22;11.10;88.10
4429;DHT22;2227;47.810;8.810;2024-01-15T11:42:49;11.40;88.80
4429;DHT22;2227;47.810;8.810;2024-01-15T11:45:18;11.90;87.40
4429;DHT22;2227;47.810;8.810;2024-01-15T11:50:31;11.90;85.70
4429;DHT22;2227;47.810;8.810;2024-01-15T11:53:02;11.70;86.40
4429;DHT22;2227;47.810;8.810;2024-01-15T11:55:39;11.90;87.80
4429;DHT22;2227;47.810;8.810;2024-01-15T11:58:08;12.50;84.40
4429;DHT22;2227;47.810;8.810;2024-01-15T12:00:35;12.60;84.40
4429;DHT22;2227;47.810;8.810;2024-01-15T12:03:05;13.20;81.60
4429;DHT22;2227;47.810;8.810;2024-01-15T12:05:32;12.50;82.60
4429;DHT22;2227;47.810;8.810;2024-01-15T12:07:59;12.10;84.10
4429;DHT22;2227;47.810;8.810;2024-01-15T12:10:25;11.70;83.90
4429;DHT22;2227;47.810;8.810;2024-01-15T12:15:29;11.20;85.80
4429;DHT22;2227;47.810;8.810;2024-01-15T12:17:57;11.20;83.00
4429;DHT22;2227;47.810;8.810;2024-01-15T12:20:25;10.60;86.10
4429;DHT22;2227;47.810;8.810;2024-01-15T12:22:52;10.30;88.70
4429;DHT22;2227;47.810;8.810;2024-01-15T12:25:28;9.90;88.50
4429;DHT22;2227;47.810;8.810;2024-01-15T12:27:56;8.80;90.30
4429;DHT22;2227;47.810;8.810;2024-01-15T12:30:22;9.00;90.40
4429;DHT22;2227;47.810;8.810;2024-01-15T12:32:50;9.00;90.90
4429;DHT22;2227;47.810;8.810;2024-01-15T12:35:17;8.60;91.70
4429;DHT22;2227;47.810;8.810;2024-01-15T12:37:44;8.30;91.70
4429;DHT22;2227;47.810;8.810;2024-01-15T12:40:13;7.90;92.20
4429;DHT22;2227;47.810;8.810;2024-01-15T12:42:41;7.40;91.90
4429;DHT22;2227;47.810;8.810;2024-01-15T12:45:10;7.00;93.00
4429;DHT22;2227;47.810;8.810;2024-01-15T12:47:38;6.50;92.70
4429;DHT22;2227;47.810;8.810;2024-01-15T12:50:09;6.10;94.70
4429;DHT22;2227;47.810;8.810;2024-01-15T12:52:45;5.80;94.70
4429;DHT22;2227;47.810;8.810;2024-01-15T12:55:13;5.50;95.10
4429;DHT22;2227;47.810;8.810;2024-01-15T12:57:40;5.30;95.50
4429;DHT22;2227;47.810;8.810;2024-01-15T13:00:07;5.30;95.70
4429;DHT22;2227;47.810;8.810;2024-01-15T13:02:42;5.40;95.90
4429;DHT22;2227;47.810;8.810;2024-01-15T13:05:10;5.20;96.40
4429;DHT22;2227;47.810;8.810;2024-01-15T13:07:39;5.40;96.90
4429;DHT22;2227;47.810;8.810;2024-01-15T13:10:07;5.20;97.50
4429;DHT22;2227;47.810;8.810;2024-01-15T13:12:35;5.20;98.00
4429;DHT22;2227;47.810;8.810;2024-01-15T13:15:02;5.10;97.40
4429;DHT22;2227;47.810;8.810;2024-01-15T13:17:30;4.80;98.20
4429;DHT22;2227;47.810;8.810;2024-01-15T13:19:58;4.70;98.70
4429;DHT22;2227;47.810;8.810;2024-01-15T13:22:25;4.50;98.90
4429;DHT22;2227;47.810;8.810;2024-01-15T13:24:59;4.30;99.60
4429;DHT22;2227;47.810;8.810;2024-01-15T13:27:27;4.40;99.90
4429;DHT22;2227;47.810;8.810;2024-01-15T13:29:54;4.50;99.90
4429;DHT22;2227;47.810;8.810;2024-01-15T13:32:25;4.40;99.90
4429;DHT22;2227;47.810;8.810;2024-01-15T13:34:59;4.30;99.90
4429;DHT22;2227;47.810;8.810;2024-01-15T13:37:27;4.40;99.90
4429;DHT22;2227;47.810;8.810;2024-01-15T13:39:54;4.30;99.90
4429;DHT22;2227;47.810;8.810;2024-01-15T13:42:21;4.20;99.90
4429;DHT22;2227;47.810;8.810;2024-01-15T13:44:54;4.10;99.90
4429;DHT22;2227;47.810;8.810;2024-01-15T13:47:21;4.00;99.90
4429;DHT22;2227;47.810;8.810;2024-01-15T13:49:48;4.10;99.90
4429;DHT22;2227;47.810;8.810;2024-01-15T13:52:14;4.10;99.90
4429;DHT22;2227;47.810;8.810;2024-01-15T13:54:41;4.10;99.90
4429;DHT22;2227;47.810;8.810;2024-01-15T13:57:19;4.00;99.90
4429;DHT22;2227;47.810;8.810;2024-01-15T13:59:47;4.00;99.90
4429;DHT22;2227;47.810;8.810;2024-01-15T14:02:14;3.90;99.90
4429;DHT22;2227;47.810;8.810;2024-01-15T14:04:47;3.80;99.90
4429;DHT22;2227;47.810;8.810;2024-01-15T14:07:14;3.80;99.90
4429;DHT22;2227;47.810;8.810;2024-01-15T14:09:40;3.80;99.90
4429;DHT22;2227;47.810;8.810;2024-01-15T14:12:07;3.70;99.90
4429;DHT22;2227;47.810;8.810;2024-01-15T14:14:34;3.70;99.90
4429;DHT22;2227;47.810;8.810;2024-01-15T14:17:01;3.70;99.90
4429;DHT22;2227;47.810;8.810;2024-01-15T14:19:28;3.70;99.90
4429;DHT22;2227;47.810;8.810;2024-01-15T14:21:55;3.60;99.90
4429;DHT22;2227;47.810;8.810;2024-01-15T14:24:22;3.60;99.90
4429;DHT22;2227;47.810;8.810;2024-01-15T14:26:49;3.50;99.90
4429;DHT22;2227;47.810;8.810;2024-01-15T14:29:16;3.50;99.90
4429;DHT22;2227;47.810;8.810;2024-01-15T14:31:45;3.40;99.90
4429;DHT22;2227;47.810;8.810;2024-01-15T14:34:13;3.30;99.90
4429;DHT22;2227;47.810;8.810;2024-01-15T14:36:40;3.30;99.90
4429;DHT22;2227;47.810;8.810;2024-01-15T14:39:07;3.20;99.90
4429;DHT22;2227;47.810;8.810;2024-01-15T14:41:33;3.20;99.90
4429;DHT22;2227;47.810;8.810;2024-01-15T14:44:00;3.10;99.90
4429;DHT22;2227;47.810;8.810;2024-01-15T14:46:27;3.10;99.90
4429;DHT22;2227;47.810;8.810;2024-01-15T14:48:54;3.10;99.90
4429;DHT22;2227;47.810;8.810;2024-01-15T14:51:21;3.00;99.90
4429;DHT22;2227;47.810;8.810;2024-01-15T14:53:48;3.00;99.90
4429;DHT22;2227;47.810;8.810;2024-01-15T14:56:14;3.00;99.90
4429;DHT22;2227;47.810;8.810;2024-01-15T14:58:44;2.90;99.90
4429;DHT22;2227;47.810;8.810;2024-01-15T15:01:11;2.90;99.90
4429;DHT22;2227;47.810;8.810;2024-01-15T15:03:39;2.90;99.90
4429;DHT22;2227;47.810;8.810;2024-01-15T15:06:06;3.00;99.90
4429;DHT22;2227;47.810;8.810;2024-01-15T15:08:36;2.90;99.90
4429;DHT22;2227;47.810;8.810;2024-01-15T15:11:04;2.90;99.90
4429;DHT22;2227;47.810;8.810;2024-01-15T15:13:30;2.80;99.90
4429;DHT22;2227;47.810;8.810;2024-01-15T15:16:10;2.70;99.90
4429;DHT22;2227;47.810;8.810;2024-01-15T15:18:38;2.70;99.90
4429;DHT22;2227;47.810;8.810;2024-01-15T15:21:05;2.80;99.90
4429;DHT22;2227;47.810;8.810;2024-01-15T15:23:34;2.80;99.90
4429;DHT22;2227;47.810;8.810;2024-01-15T15:26:01;2.70;99.90
4429;DHT22;2227;47.810;8.810;2024-01-15T15:28:28;2.60;99.90
4429;DHT22;2227;47.810;8.810;2024-01-15T15:30:54;2.60;99.90
4429;DHT22;2227;47.810;8.810;2024-01-15T15:33:21;2.60;99.90
4429;DHT22;2227;47.810;8.810;2024-01-15T15:35:48;2.60;99.90
4429;DHT22;2227;47.810;8.810;2024-01-15T15:38:17;2.60;99.90
4429;DHT22;2227;47.810;8.810;2024-01-15T15:40:45;2.60;99.90
4429;DHT22;2227;47.810;8.810;2024-01-15T15:43:11;2.60;99.90
4429;DHT22;2227;47.810;8.810;2024-01-15T15:45:38;2.70;99.90
4429;DHT22;2227;47.810;8.810;2024-01-15T15:48:05;2.70;99.90
4429;DHT22;2227;47.810;8.810;2024-01-15T15:50:33;2.70;99.90
4429;DHT22;2227;47.810;8.810;2024-01-15T15:53:01;2.70;99.90
4429;DHT22;2227;47.810;8.810;2024-01-15T15:55:30;2.70;99.90
4429;DHT22;2227;47.810;8.810;2024-01-15T15:57:57;2.80;99.90
4429;DHT22;2227;47.810;8.810;2024-01-15T16:00:23;2.80;99.90
4429;DHT22;2227;47.810;8.810;2024-01-15T16:02:50;2.80;99.90
4429;DHT22;2227;47.810;8.810;2024-01-15T16:05:17;2.70;99.90
4429;DHT22;2227;47.810;8.810;2024-01-15T16:07:44;2.60;99.90
4429;DHT22;2227;47.810;8.810;2024-01-15T16:10:11;2.50;99.90
4429;DHT22;2227;47.810;8.810;2024-01-15T16:12:38;2.50;99.90
4429;DHT22;2227;47.810;8.810;2024-01-15T16:17:46;2.60;99.90
4429;DHT22;2227;47.810;8.810;2024-01-15T16:20:33;2.60;99.90
4429;DHT22;2227;47.810;8.810;2024-01-15T16:23:20;2.40;99.90
4429;DHT22;2227;47.810;8.810;2024-01-15T16:26:06;2.40;99.90
4429;DHT22;2227;47.810;8.810;2024-01-15T16:28:34;2.40;99.90
4429;DHT22;2227;47.810;8.810;2024-01-15T16:31:01;2.50;99.90
4429;DHT22;2227;47.810;8.810;2024-01-15T16:33:34;2.50;99.90
4429;DHT22;2227;47.810;8.810;2024-01-15T16:36:00;2.50;99.90
4429;DHT22;2227;47.810;8.810;2024-01-15T16:38:27;2.40;99.90
4429;DHT22;2227;47.810;8.810;2024-01-15T16:40:55;2.40;99.90
4429;DHT22;2227;47.810;8.810;2024-01-15T16:43:22;2.30;99.90
4429;DHT22;2227;47.810;8.810;2024-01-15T16:45:49;2.20;99.90
4429;DHT22;2227;47.810;8.810;2024-01-15T16:48:16;2.30;99.90
4429;DHT22;2227;47.810;8.810;2024-01-15T16:50:43;2.30;99.90
4429;DHT22;2227;47.810;8.810;2024-01-15T16:53:10;2.10;99.90
4429;DHT22;2227;47.810;8.810;2024-01-15T16:55:36;2.10;99.90
4429;DHT22;2227;47.810;8.810;2024-01-15T16:58:03;2.00;99.90
4429;DHT22;2227;47.810;8.810;2024-01-15T17:00:30;2.00;99.90
4429;DHT22;2227;47.810;8.810;2024-01-15T17:02:57;2.10;99.90
4429;DHT22;2227;47.810;8.810;2024-01-15T17:05:24;2.10;99.90
4429;DHT22;2227;47.810;8.810;2024-01-15T17:07:51;1.90;99.90
4429;DHT22;2227;47.810;8.810;2024-01-15T17:10:18;1.90;99.90
4429;DHT22;2227;47.810;8.810;2024-01-15T17:12:44;1.90;99.90
4429;DHT22;2227;47.810;8.810;2024-01-15T17:15:11;2.00;99.90
4429;DHT22;2227;47.810;8.810;2024-01-15T17:17:38;2.00;99.90
4429;DHT22;2227;47.810;8.810;2024-01-15T17:20:06;1.80;99.90
4429;DHT22;2227;47.810;8.810;2024-01-15T17:22:32;1.80;99.90
4429;DHT22;2227;47.810;8.810;2024-01-15T17:24:59;1.80;99.90
4429;DHT22;2227;47.810;8.810;2024-01-15T17:27:26;1.60;99.90
4429;DHT22;2227;47.810;8.810;2024-01-15T17:29:54;1.60;99.90
4429;DHT22;2227;47.810;8.810;2024-01-15T17:32:22;1.60;99.90
4429;DHT22;2227;47.810;8.810;2024-01-15T17:34:49;1.60;99.90
4429;DHT22;2227;47.810;8.810;2024-01-15T17:37:15;1.60;99.90
4429;DHT22;2227;47.810;8.810;2024-01-15T17:39:42;1.60;99.90
4429;DHT22;2227;47.810;8.810;2024-01-15T17:42:10;1.70;99.90
4429;DHT22;2227;47.810;8.810;2024-01-15T17:44:36;1.70;99.90
4429;DHT22;2227;47.810;8.810;2024-01-15T17:47:04;1.70;99.90
4429;DHT22;2227;47.810;8.810;2024-01-15T17:49:31;1.80;99.90
4429;DHT22;2227;47.810;8.810;2024-01-15T17:51:58;1.80;99.90
4429;DHT22;2227;47.810;8.810;2024-01-15T17:54:27;1.80;99.90
4429;DHT22;2227;47.810;8.810;2024-01-15T17:56:57;1.80;99.90
4429;DHT22;2227;47.810;8.810;2024-01-15T17:59:24;1.80;99.90
4429;DHT22;2227;47.810;8.810;2024-01-15T18:01:51;2.00;99.90
4429;DHT22;2227;47.810;8.810;2024-01-15T18:04:18;2.00;99.90
4429;DHT22;2227;47.810;8.810;2024-01-15T18:06:49;2.10;99.90
4429;DHT22;2227;47.810;8.810;2024-01-15T18:09:16;2.10;99.90
4429;DHT22;2227;47.810;8.810;2024-01-15T18:11:44;2.00;99.90
4429;DHT22;2227;47.810;8.810;2024-01-15T18:14:11;1.90;99.90
4429;DHT22;2227;47.810;8.810;2024-01-15T18:16:39;1.90;99.90
4429;DHT22;2227;47.810;8.810;2024-01-15T18:19:06;1.80;99.90
4429;DHT22;2227;47.810;8.810;2024-01-15T18:21:32;1.70;99.90
4429;DHT22;2227;47.810;8.810;2024-01-15T18:23:59;1.50;99.90
4429;DHT22;2227;47.810;8.810;2024-01-15T18:26:26;1.50;99.90
4429;DHT22;2227;47.810;8.810;2024-01-15T18:28:53;1.60;99.90
4429;DHT22;2227;47.810;8.810;2024-01-15T18:31:20;1.50;99.90
4429;DHT22;2227;47.810;8.810;2024-01-15T18:33:47;1.60;99.90
4429;DHT22;2227;47.810;8.810;2024-01-15T18:36:14;1.60;99.90
4429;DHT22;2227;47.810;8.810;2024-01-15T18:38:40;1.60;99.90
4429;DHT22;2227;47.810;8.810;2024-01-15T18:41:07;1.50;99.90
4429;DHT22;2227;47.810;8.810;2024-01-15T18:43:34;1.40;99.90
4429;DHT22;2227;47.810;8.810;2024-01-15T18:46:04;1.40;99.90
4429;DHT22;2227;47.810;8.810;2024-01-15T18:48:34;1.50;99.90
4429;DHT22;2227;47.810;8.810;2024-01-15T18:51:02;1.60;99.90
4429;DHT22;2227;47.810;8.810;2024-01-15T18:53:29;1.50;99.90
4429;DHT22;2227;47.810;8.810;2024-01-15T18:55:56;1.40;99.90
4429;DHT22;2227;47.810;8.810;2024-01-15T18:58:24;1.40;99.90
4429;DHT22;2227;47.810;8.810;2024-01-15T19:00:52;1.40;99.90
4429;DHT22;2227;47.810;8.810;2024-01-15T19:03:19;1.30;99.90
4429;DHT22;2227;47.810;8.810;2024-01-15T19:05:46;1.30;99.90
4429;DHT22;2227;47.810;8.810;2024-01-15T19:08:13;1.30;99.90
4429;DHT22;2227;47.810;8.810;2024-01-15T19:10:41;1.20;99.90
4429;DHT22;2227;47.810;8.810;2024-01-15T19:13:08;1.20;99.90
4429;DHT22;2227;47.810;8.810;2024-01-15T19:15:37;1.20;99.90
4429;DHT22;2227;47.810;8.810;2024-01-15T19:18:04;1.20;99.90
4429;DHT22;2227;47.810;8.810;2024-01-15T19:20:31;1.20;99.90
4429;DHT22;2227;47.810;8.810;2024-01-15T19:22:58;1.10;99.90
4429;DHT22;2227;47.810;8.810;2024-01-15T19:25:27;1.10;99.90
4429;DHT22;2227;47.810;8.810;2024-01-15T19:27:54;1.20;99.90
4429;DHT22;2227;47.810;8.810;2024-01-15T19:30:21;1.10;99.90
4429;DHT22;2227;47.810;8.810;2024-01-15T19:32:48;1.30;99.90
4429;DHT22;2227;47.810;8.810;2024-01-15T19:35:15;1.30;99.90
4429;DHT22;2227;47.810;8.810;2024-01-15T19:37:42;1.30;99.90
4429;DHT22;2227;47.810;8.810;2024-01-15T19:40:09;1.20;99.90
4429;DHT22;2227;47.810;8.810;2024-01-15T19:42:36;1.30;99.90
4429;DHT22;2227;47.810;8.810;2024-01-15T19:45:03;1.10;99.90
4429;DHT22;2227;47.810;8.810;2024-01-15T19:47:30;1.10;99.90
4429;DHT22;2227;47.810;8.810;2024-01-15T19:49:57;1.20;99.90
4429;DHT22;2227;47.810;8.810;2024-01-15T19:52:24;1.10;99.90
4429;DHT22;2227;47.810;8.810;2024-01-15T19:54:51;1.10;99.90
4429;DHT22;2227;47.810;8.810;2024-01-15T19:57:18;1.10;99.90
4429;DHT22;2227;47.810;8.810;2024-01-15T19:59:45;1.10;99.90
4429;DHT22;2227;47.810;8.810;2024-01-15T20:02:14;1.10;99.90
4429;DHT22;2227;47.810;8.810;2024-01-15T20:04:41;1.10;99.90
4429;DHT22;2227;47.810;8.810;2024-01-15T20:07:08;1.20;99.90
4429;DHT22;2227;47.810;8.810;2024-01-15T20:09:34;1.20;99.90
4429;DHT22;2227;47.810;8.810;2024-01-15T20:12:02;1.30;99.90
4429;DHT22;2227;47.810;8.810;2024-01-15T20:14:29;1.30;99.90
4429;DHT22;2227;47.810;8.810;2024-01-15T20:16:57;1.10;99.90
4429;DHT22;2227;47.810;8.810;2024-01-15T20:19:27;1.00;99.90
4429;DHT22;2227;47.810;8.810;2024-01-15T20:21:54;0.90;99.90
4429;DHT22;2227;47.810;8.810;2024-01-15T20:24:21;1.10;99.90
4429;DHT22;2227;47.810;8.810;2024-01-15T20:26:51;0.90;99.90
4429;DHT22;2227;47.810;8.810;2024-01-15T20:29:18;0.90;99.90
4429;DHT22;2227;47.810;8.810;2024-01-15T20:31:45;0.80;99.90
4429;DHT22;2227;47.810;8.810;2024-01-15T20:34:12;0.80;99.90
4429;DHT22;2227;47.810;8.810;2024-01-15T20:36:40;0.60;99.90
4429;DHT22;2227;47.810;8.810;2024-01-15T20:39:06;0.60;99.90
4429;DHT22;2227;47.810;8.810;2024-01-15T20:41:33;0.70;99.90
4429;DHT22;2227;47.810;8.810;2024-01-15T20:44:00;0.70;99.90
4429;DHT22;2227;47.810;8.810;2024-01-15T20:46:27;0.60;99.90
4429;DHT22;2227;47.810;8.810;2024-01-15T20:48:55;0.70;99.90
4429;DHT22;2227;47.810;8.810;2024-01-15T20:51:22;0.70;99.90
4429;DHT22;2227;47.810;8.810;2024-01-15T20:53:48;0.50;99.90
4429;DHT22;2227;47.810;8.810;2024-01-15T20:56:16;0.40;99.90
4429;DHT22;2227;47.810;8.810;2024-01-15T20:58:43;0.30;99.90
4429;DHT22;2227;47.810;8.810;2024-01-15T21:01:10;0.30;99.90
4429;DHT22;2227;47.810;8.810;2024-01-15T21:03:37;0.00;99.90
4429;DHT22;2227;47.810;8.810;2024-01-15T21:06:04;0.10;99.90
4429;DHT22;2227;47.810;8.810;2024-01-15T21:08:32;0.00;99.90
4429;DHT22;2227;47.810;8.810;2024-01-15T21:10:59;-0.10;99.90
4429;DHT22;2227;47.810;8.810;2024-01-15T21:13:26;-0.10;99.90
4429;DHT22;2227;47.810;8.810;2024-01-15T21:15:53;-0.10;99.90
4429;DHT22;2227;47.810;8.810;2024-01-15T21:18:20;-0.20;99.90
4429;DHT22;2227;47.810;8.810;2024-01-15T21:20:47;-0.10;99.90
4429;DHT22;2227;47.810;8.810;2024-01-15T21:23:14;0.00;99.90